Time;durP1;ratioP1;P1;durP2;ratioP2;P2;SDS_P1;SDS_P2;PMS_P1;PMS_P2;Temp;Humidity;BMP_temperature;BMP_pressure;BME280_temperature;BME280_humidity;BME280_pressure;Samples;Min_cycle;Max_cycle;Signal;HPM_P1;HPM_P2
2021/09/07 00:01:27;;;;;;;12.03;8.70;;;15.60;99.90;;;;;;5043582;28;20209;-81
2021/09/07 00:03:53;;;;;;;11.03;8.10;;;15.60;99.90;;;;;;5060085;28;20169;-80
2021/09/07 00:06:20;;;;;;;11.67;8.80;;;15.60;99.90;;;;;;5043409;28;20559;-81
2021/09/07 00:08:45;;;;;;;13.03;8.70;;;15.50;99.90;;;;;;5043194;28;20607;-81
2021/09/07 00:11:11;;;;;;;11.83;8.63;;;15.50;99.90;;;;;;5043173;28;20183;-80
2021/09/07 00:13:37;;;;;;;12.03;7.77;;;15.50;99.90;;;;;;5042801;28;20177;-81
2021/09/07 00:16:03;;;;;;;10.13;7.97;;;15.50;99.90;;;;;;5042577;28;20212;-81
2021/09/07 00:18:28;;;;;;;11.17;8.10;;;15.40;99.90;;;;;;5042986;28;20188;-81
2021/09/07 00:20:54;;;;;;;12.97;8.67;;;15.40;99.90;;;;;;5059509;28;20570;-81
2021/09/07 00:23:20;;;;;;;9.73;7.67;;;15.40;99.90;;;;;;5043099;28;20555;-80
2021/09/07 00:25:45;;;;;;;11.37;8.67;;;15.40;99.90;;;;;;5042047;28;20197;-81
2021/09/07 00:28:11;;;;;;;11.80;8.73;;;15.30;99.90;;;;;;5042943;28;20181;-82
2021/09/07 00:30:36;;;;;;;12.07;8.30;;;15.30;99.90;;;;;;5042895;28;20722;-81
2021/09/07 00:33:03;;;;;;;12.87;8.63;;;15.30;99.90;;;;;;5043268;28;20181;-81
2021/09/07 00:35:29;;;;;;;10.40;7.63;;;15.20;99.90;;;;;;5059719;28;20191;-82
2021/09/07 00:37:55;;;;;;;13.33;9.00;;;15.20;99.90;;;;;;5059345;28;20256;-81
2021/09/07 00:40:20;;;;;;;11.87;8.80;;;15.20;99.90;;;;;;5042994;28;20178;-81
2021/09/07 00:42:46;;;;;;;10.43;7.70;;;15.20;99.90;;;;;;5042437;28;20595;-81
2021/09/07 00:45:12;;;;;;;11.63;8.10;;;15.10;99.90;;;;;;5043415;28;20205;-82
2021/09/07 00:47:39;;;;;;;12.57;8.77;;;15.10;99.90;;;;;;5043666;28;20772;-81
2021/09/07 00:50:05;;;;;;;13.60;8.80;;;15.20;99.90;;;;;;5044319;28;20223;-81
2021/09/07 00:52:30;;;;;;;11.63;8.07;;;15.10;99.90;;;;;;5043008;28;20181;-81
2021/09/07 00:54:56;;;;;;;11.10;8.17;;;15.10;99.90;;;;;;5060327;28;20219;-81
2021/09/07 00:57:25;;;;;;;12.67;8.20;;;15.10;99.90;;;;;;5044127;28;20388;-79
2021/09/07 00:59:52;;;;;;;11.67;7.90;;;15.10;99.90;;;;;;5049798;28;20220;-80
2021/09/07 01:02:17;;;;;;;14.03;8.43;;;15.00;99.90;;;;;;5049186;28;20699;-80
2021/09/07 01:04:43;;;;;;;11.47;8.37;;;15.00;99.90;;;;;;5048452;28;20197;-79
2021/09/07 01:07:08;;;;;;;12.77;8.43;;;15.00;99.90;;;;;;5048747;28;20187;-81
2021/09/07 01:09:39;;;;;;;11.67;8.23;;;14.90;99.90;;;;;;5048110;28;20169;-80
2021/09/07 01:12:08;;;;;;;10.97;8.47;;;14.90;99.90;;;;;;5050031;28;20174;-81
2021/09/07 01:14:37;;;;;;;10.70;7.63;;;14.90;99.90;;;;;;5048310;28;20197;-80
2021/09/07 01:17:08;;;;;;;10.87;8.10;;;14.90;99.90;;;;;;5066113;28;20181;-80
2021/09/07 01:19:34;;;;;;;12.17;8.53;;;14.90;99.90;;;;;;5049623;28;20177;-80
2021/09/07 01:22:00;;;;;;;10.83;8.70;;;14.90;99.90;;;;;;5048785;28;20259;-80
2021/09/07 01:24:26;;;;;;;10.10;7.97;;;15.00;99.90;;;;;;5049132;28;20197;-80
2021/09/07 01:26:52;;;;;;;11.93;8.87;;;14.90;99.90;;;;;;5065329;28;20166;-80
2021/09/07 01:29:18;;;;;;;14.13;9.20;;;14.90;99.90;;;;;;5081319;28;20173;-80
2021/09/07 01:31:43;;;;;;;11.30;8.43;;;14.90;99.90;;;;;;5049106;28;20205;-80
2021/09/07 01:34:09;;;;;;;13.30;8.30;;;15.00;99.90;;;;;;5064535;28;20178;-81
2021/09/07 01:36:35;;;;;;;12.77;8.67;;;15.00;99.90;;;;;;5048151;28;20181;-79
2021/09/07 01:39:00;;;;;;;10.87;8.10;;;14.90;99.90;;;;;;5048597;28;20243;-79
2021/09/07 01:41:27;;;;;;;13.83;8.70;;;15.00;99.90;;;;;;5049141;28;20220;-80
2021/09/07 01:43:52;;;;;;;11.10;8.47;;;15.00;99.90;;;;;;5047904;28;20189;-79
2021/09/07 01:46:18;;;;;;;12.47;8.83;;;14.90;99.90;;;;;;5047138;28;20193;-80
2021/09/07 01:48:44;;;;;;;12.97;8.00;;;15.00;99.90;;;;;;5048036;28;20189;-81
2021/09/07 01:51:09;;;;;;;12.57;8.67;;;14.90;99.90;;;;;;5064376;28;20178;-79
2021/09/07 01:53:35;;;;;;;12.37;8.50;;;14.90;99.90;;;;;;5059787;28;20185;-83
2021/09/07 01:56:01;;;;;;;13.37;8.80;;;14.90;99.90;;;;;;5040874;28;20287;-82
2021/09/07 01:58:26;;;;;;;12.43;8.20;;;15.00;99.90;;;;;;5040383;28;20649;-82
2021/09/07 02:00:52;;;;;;;11.50;8.90;;;15.00;99.90;;;;;;5040383;28;20278;-80
2021/09/07 02:03:17;;;;;;;13.20;8.33;;;15.00;99.90;;;;;;5057521;28;20177;-82
2021/09/07 02:05:43;;;;;;;12.17;8.50;;;15.00;99.90;;;;;;5056648;28;20193;-82
2021/09/07 02:08:09;;;;;;;13.03;8.57;;;14.90;99.90;;;;;;5057356;28;20188;-82
2021/09/07 02:10:34;;;;;;;10.50;8.30;;;15.00;99.90;;;;;;5040245;28;20632;-82
2021/09/07 02:13:00;;;;;;;12.10;8.67;;;15.00;99.90;;;;;;5040836;28;20178;-81
2021/09/07 02:15:26;;;;;;;11.03;8.47;;;15.00;99.90;;;;;;5040916;28;20664;-82
2021/09/07 02:17:51;;;;;;;12.73;8.90;;;15.00;99.90;;;;;;5043447;28;20269;-82
2021/09/07 02:20:17;;;;;;;11.63;8.90;;;15.00;99.90;;;;;;5044733;28;20178;-82
2021/09/07 02:22:43;;;;;;;11.17;8.40;;;15.00;99.90;;;;;;5061045;28;20705;-82
2021/09/07 02:25:09;;;;;;;12.10;8.57;;;15.10;99.90;;;;;;5060997;28;20196;-81
2021/09/07 02:27:34;;;;;;;15.30;9.93;;;15.10;99.90;;;;;;5043977;28;20174;-81
2021/09/07 02:30:00;;;;;;;13.30;9.70;;;15.10;99.90;;;;;;5043868;28;20177;-82
2021/09/07 02:32:26;;;;;;;14.27;10.00;;;15.20;99.90;;;;;;5043872;28;20245;-82
2021/09/07 02:34:51;;;;;;;11.90;9.10;;;15.20;99.90;;;;;;5043955;28;20228;-82
2021/09/07 02:37:17;;;;;;;11.60;8.63;;;15.20;99.90;;;;;;5043977;28;20177;-81
2021/09/07 02:39:42;;;;;;;14.13;10.20;;;15.20;99.90;;;;;;5044082;28;20189;-83
2021/09/07 02:42:08;;;;;;;13.40;10.00;;;15.20;99.90;;;;;;5043879;28;20205;-82
2021/09/07 02:44:34;;;;;;;13.50;9.63;;;15.20;99.90;;;;;;5045684;28;20198;-81
2021/09/07 02:46:59;;;;;;;14.13;9.93;;;15.20;99.90;;;;;;5045618;28;20680;-81
2021/09/07 02:49:25;;;;;;;14.47;9.50;;;15.20;99.90;;;;;;5045752;28;20624;-81
2021/09/07 02:51:51;;;;;;;13.83;9.50;;;15.20;99.90;;;;;;5061891;28;20197;-80
2021/09/07 02:54:17;;;;;;;14.83;10.00;;;15.20;99.90;;;;;;5045446;28;20281;-80
2021/09/07 02:56:42;;;;;;;13.67;10.47;;;15.30;99.90;;;;;;5067314;28;20275;-80
2021/09/07 02:59:09;;;;;;;14.10;10.03;;;15.30;99.90;;;;;;5050080;28;20208;-81
2021/09/07 03:01:35;;;;;;;14.03;9.87;;;15.20;99.90;;;;;;5050577;28;20201;-80
2021/09/07 03:04:01;;;;;;;14.93;9.50;;;15.30;99.90;;;;;;5050639;28;20177;-80
2021/09/07 03:06:26;;;;;;;12.33;9.37;;;15.30;99.90;;;;;;5050156;28;20659;-80
2021/09/07 03:08:52;;;;;;;15.13;9.47;;;15.40;99.90;;;;;;5067052;28;20173;-80
2021/09/07 03:11:18;;;;;;;11.80;9.23;;;15.40;99.90;;;;;;5066946;28;20200;-79
2021/09/07 03:13:43;;;;;;;15.63;9.93;;;15.40;99.90;;;;;;5050725;28;20181;-79
2021/09/07 03:16:09;;;;;;;13.40;9.50;;;15.40;99.90;;;;;;5066117;28;20217;-80
2021/09/07 03:18:35;;;;;;;13.67;9.60;;;15.40;99.90;;;;;;5050166;28;20169;-82
2021/09/07 03:21:00;;;;;;;13.27;9.20;;;15.50;99.90;;;;;;5047263;28;20209;-80
2021/09/07 03:23:26;;;;;;;16.07;9.70;;;15.50;99.90;;;;;;5045863;28;20200;-80
2021/09/07 03:25:52;;;;;;;14.30;9.83;;;15.50;99.90;;;;;;5062405;28;20238;-80
2021/09/07 03:28:17;;;;;;;17.27;10.17;;;15.50;99.90;;;;;;5046240;28;20184;-79
2021/09/07 03:30:46;;;;;;;14.47;10.27;;;15.50;99.90;;;;;;5045917;28;20280;-79
2021/09/07 03:33:11;;;;;;;12.20;9.30;;;15.50;99.90;;;;;;5046391;28;20632;-79
2021/09/07 03:35:37;;;;;;;16.97;9.80;;;15.50;99.90;;;;;;5046654;28;20208;-80
2021/09/07 03:38:03;;;;;;;14.67;9.83;;;15.50;99.90;;;;;;5046004;28;20176;-79
2021/09/07 03:40:28;;;;;;;13.63;9.27;;;15.50;99.90;;;;;;5079038;28;20692;-80
2021/09/07 03:42:54;;;;;;;15.80;11.10;;;15.50;99.90;;;;;;5078271;28;20177;-80
2021/09/07 03:45:19;;;;;;;15.30;10.77;;;15.50;99.90;;;;;;5045971;28;20198;-79
2021/09/07 03:47:45;;;;;;;17.47;11.40;;;15.50;99.90;;;;;;5062440;28;20173;-79
2021/09/07 03:50:11;;;;;;;16.87;11.23;;;15.50;99.90;;;;;;5061755;28;20178;-80
2021/09/07 03:52:37;;;;;;;19.30;12.93;;;15.50;99.90;;;;;;5062358;28;20243;-80
2021/09/07 03:55:02;;;;;;;19.37;12.27;;;15.50;99.90;;;;;;5045329;28;20221;-80
2021/09/07 03:57:28;;;;;;;16.13;11.63;;;15.50;99.90;;;;;;5061687;28;20192;-79
2021/09/07 03:59:56;;;;;;;16.50;11.90;;;15.50;99.90;;;;;;5045513;28;20268;-80
2021/09/07 04:02:22;;;;;;;18.67;12.27;;;15.50;99.90;;;;;;5061825;28;20231;-79
2021/09/07 04:04:48;;;;;;;15.17;11.23;;;15.50;99.90;;;;;;5044814;28;20198;-80
2021/09/07 04:07:13;;;;;;;19.93;11.60;;;15.50;99.90;;;;;;5061868;28;20188;-80
2021/09/07 04:09:39;;;;;;;16.53;11.17;;;15.50;99.90;;;;;;5044909;28;20212;-79
2021/09/07 04:12:05;;;;;;;17.20;11.73;;;15.50;99.90;;;;;;5044511;28;20201;-79
2021/09/07 04:14:30;;;;;;;18.47;11.70;;;15.50;99.90;;;;;;5061097;28;20189;-79
2021/09/07 04:16:56;;;;;;;19.37;11.97;;;15.50;99.90;;;;;;5044536;28;20177;-80
2021/09/07 04:19:22;;;;;;;16.23;10.10;;;15.50;99.90;;;;;;5044215;28;20543;-79
2021/09/07 04:21:47;;;;;;;14.63;10.70;;;15.50;99.90;;;;;;5060751;28;20212;-79
2021/09/07 04:24:13;;;;;;;16.17;11.20;;;15.60;99.90;;;;;;5061453;28;20177;-80
2021/09/07 04:26:38;;;;;;;14.77;10.90;;;15.50;99.90;;;;;;5044056;28;20268;-79
2021/09/07 04:29:04;;;;;;;17.17;11.23;;;15.50;99.90;;;;;;5061334;28;20220;-80
2021/09/07 04:31:30;;;;;;;16.57;10.77;;;15.60;99.90;;;;;;5044282;28;20174;-80
2021/09/07 04:33:55;;;;;;;14.43;10.63;;;15.50;99.90;;;;;;5061483;28;20175;-80
2021/09/07 04:36:21;;;;;;;18.47;10.17;;;15.60;99.90;;;;;;5044807;28;20177;-80
2021/09/07 04:38:46;;;;;;;14.53;10.90;;;15.60;99.90;;;;;;5043888;28;20178;-79
2021/09/07 04:41:13;;;;;;;13.77;9.87;;;15.60;99.90;;;;;;5043631;28;20669;-80
2021/09/07 04:43:38;;;;;;;17.27;10.23;;;15.50;99.90;;;;;;5044940;28;20178;-79
2021/09/07 04:46:04;;;;;;;13.40;10.20;;;15.60;99.90;;;;;;5045206;28;20276;-79
2021/09/07 04:48:30;;;;;;;13.50;9.77;;;15.60;99.90;;;;;;5045308;28;20184;-81
2021/09/07 04:50:55;;;;;;;13.00;9.07;;;15.60;99.90;;;;;;5061266;28;20173;-80
2021/09/07 04:53:21;;;;;;;13.50;9.97;;;15.70;99.90;;;;;;5036760;28;20229;-80
2021/09/07 04:55:47;;;;;;;15.23;10.20;;;15.60;99.90;;;;;;5025787;28;20225;-80
2021/09/07 04:58:13;;;;;;;14.80;9.40;;;15.60;99.90;;;;;;5019996;28;20656;-80
2021/09/07 05:00:38;;;;;;;13.00;9.20;;;15.70;99.90;;;;;;5037701;28;20183;-81
2021/09/07 05:03:04;;;;;;;13.67;9.83;;;15.70;99.90;;;;;;5020698;28;20178;-80
2021/09/07 05:05:29;;;;;;;14.23;10.33;;;15.70;99.90;;;;;;5042120;28;20222;-83
2021/09/07 05:07:57;;;;;;;16.03;10.37;;;15.70;99.90;;;;;;5024011;28;20201;-84
2021/09/07 05:10:23;;;;;;;14.87;9.30;;;15.60;99.90;;;;;;5041463;28;20171;-82
2021/09/07 05:12:49;;;;;;;17.70;9.80;;;15.60;99.90;;;;;;5017633;28;20185;-82
2021/09/07 05:15:14;;;;;;;18.80;10.13;;;15.70;99.90;;;;;;5003340;28;20202;-83
2021/09/07 05:17:40;;;;;;;17.73;10.57;;;15.70;99.90;;;;;;5020895;28;20179;-83
2021/09/07 05:20:06;;;;;;;15.70;9.93;;;15.70;99.90;;;;;;5020886;28;20270;-83
2021/09/07 05:22:32;;;;;;;15.53;10.37;;;15.70;99.90;;;;;;5004349;28;20286;-82
2021/09/07 05:24:58;;;;;;;15.40;10.50;;;15.70;99.90;;;;;;5020430;28;20223;-81
2021/09/07 05:27:23;;;;;;;17.50;10.30;;;15.70;99.90;;;;;;5037498;28;20189;-81
2021/09/07 05:29:50;;;;;;;14.20;10.37;;;15.70;99.90;;;;;;5003464;28;20190;-81
2021/09/07 05:32:15;;;;;;;15.17;10.13;;;15.70;99.90;;;;;;5021244;28;20178;-82
2021/09/07 05:34:41;;;;;;;15.03;10.30;;;15.80;99.90;;;;;;5009717;28;20603;-76
2021/09/07 05:37:06;;;;;;;17.00;10.80;;;15.80;99.90;;;;;;5008672;28;20189;-77
2021/09/07 05:39:32;;;;;;;14.83;10.53;;;15.80;99.90;;;;;;5017525;28;20835;-77
2021/09/07 05:41:57;;;;;;;19.93;11.67;;;15.80;99.90;;;;;;5033853;28;20241;-77
2021/09/07 05:44:23;;;;;;;16.73;10.40;;;15.80;99.90;;;;;;5033829;28;20224;-77
2021/09/07 05:46:49;;;;;;;15.33;10.63;;;15.80;99.90;;;;;;5030499;28;20181;-77
2021/09/07 05:49:14;;;;;;;15.70;10.07;;;15.90;99.90;;;;;;5030121;28;20186;-77
2021/09/07 05:51:41;;;;;;;13.93;10.50;;;15.90;99.90;;;;;;5033275;28;20668;-77
2021/09/07 05:54:07;;;;;;;15.87;10.63;;;15.90;99.90;;;;;;5001520;28;20186;-77
2021/09/07 05:56:33;;;;;;;15.43;10.03;;;15.90;99.90;;;;;;5017397;28;20208;-77
2021/09/07 05:58:59;;;;;;;14.10;10.27;;;16.00;99.90;;;;;;5033930;28;20175;-77
2021/09/07 06:01:24;;;;;;;17.43;11.33;;;16.00;99.90;;;;;;5001016;28;20692;-77
2021/09/07 06:03:50;;;;;;;16.13;10.10;;;16.10;99.90;;;;;;5034049;28;20577;-78
2021/09/07 06:06:15;;;;;;;16.37;11.40;;;16.10;99.90;;;;;;5001057;28;20563;-77
2021/09/07 06:08:41;;;;;;;16.27;11.03;;;16.10;99.90;;;;;;5033754;28;20543;-77
2021/09/07 06:11:07;;;;;;;17.70;10.97;;;16.20;99.90;;;;;;5017503;28;20175;-77
2021/09/07 06:13:33;;;;;;;17.43;11.73;;;16.20;99.90;;;;;;5034081;28;20202;-76
2021/09/07 06:15:59;;;;;;;16.57;10.50;;;16.20;99.90;;;;;;5017386;28;20206;-77
2021/09/07 06:18:25;;;;;;;15.03;10.33;;;16.20;99.90;;;;;;5017400;28;20186;-78
2021/09/07 06:20:50;;;;;;;14.40;10.37;;;16.20;99.90;;;;;;5000778;28;20182;-77
2021/09/07 06:23:16;;;;;;;16.80;11.23;;;16.30;99.90;;;;;;5027964;28;20552;-78
2021/09/07 06:25:42;;;;;;;17.97;10.50;;;16.20;99.90;;;;;;5001411;28;20625;-77
2021/09/07 06:28:07;;;;;;;15.43;10.80;;;16.30;99.90;;;;;;5011593;28;20178;-77
2021/09/07 06:30:33;;;;;;;15.17;10.70;;;16.30;99.90;;;;;;5039655;28;20258;-81
2021/09/07 06:32:59;;;;;;;14.97;10.67;;;16.40;99.90;;;;;;5011447;28;20206;-80
2021/09/07 06:35:24;;;;;;;14.27;10.27;;;16.40;99.90;;;;;;5021865;28;20683;-80
2021/09/07 06:37:50;;;;;;;17.60;11.03;;;16.40;99.90;;;;;;5016884;28;20631;-80
2021/09/07 06:40:16;;;;;;;15.30;10.70;;;16.40;99.90;;;;;;5033410;28;20761;-81
2021/09/07 06:42:41;;;;;;;18.00;11.17;;;16.50;99.90;;;;;;5039009;28;20202;-80
2021/09/07 06:45:08;;;;;;;16.47;10.93;;;16.50;99.90;;;;;;5023948;28;20206;-80
2021/09/07 06:47:33;;;;;;;17.83;11.90;;;16.50;99.90;;;;;;5025121;28;20650;-81
2021/09/07 06:50:02;;;;;;;14.43;9.90;;;16.60;99.90;;;;;;5025336;28;20220;-79
2021/09/07 06:52:31;;;;;;;16.80;11.07;;;16.60;99.90;;;;;;5040413;28;20171;-79
2021/09/07 06:54:56;;;;;;;17.17;11.70;;;16.60;99.90;;;;;;5020341;28;20210;-79
2021/09/07 06:57:22;;;;;;;17.43;11.57;;;16.60;99.90;;;;;;5019011;28;20532;-78
2021/09/07 06:59:48;;;;;;;16.50;10.93;;;16.60;99.90;;;;;;5019041;28;20198;-79
2021/09/07 07:02:13;;;;;;;15.17;10.70;;;16.80;99.90;;;;;;5033404;28;20670;-79
2021/09/07 07:04:39;;;;;;;17.13;10.93;;;16.70;99.90;;;;;;5036404;28;20567;-78
2021/09/07 07:07:05;;;;;;;17.10;11.27;;;16.80;99.90;;;;;;5019527;28;20241;-79
2021/09/07 07:09:30;;;;;;;18.43;12.13;;;16.80;99.90;;;;;;5038409;28;20550;-80
2021/09/07 07:11:56;;;;;;;14.80;10.80;;;16.80;99.90;;;;;;5041055;28;20178;-81
2021/09/07 07:14:22;;;;;;;18.67;11.43;;;16.90;99.90;;;;;;5016368;28;20207;-82
2021/09/07 07:16:48;;;;;;;16.93;11.57;;;16.90;99.90;;;;;;5008125;28;20185;-81
2021/09/07 07:19:14;;;;;;;16.20;11.93;;;16.90;99.90;;;;;;5004913;28;20236;-82
2021/09/07 07:21:40;;;;;;;17.80;11.63;;;17.00;99.90;;;;;;5005111;28;20281;-82
2021/09/07 07:24:06;;;;;;;17.00;11.80;;;17.10;99.90;;;;;;5026128;28;20179;-82
2021/09/07 07:26:31;;;;;;;19.00;11.73;;;17.10;99.90;;;;;;5010923;28;20225;-80
2021/09/07 07:28:57;;;;;;;18.80;12.07;;;17.10;99.90;;;;;;5023428;28;20570;-81
2021/09/07 07:31:23;;;;;;;19.57;11.43;;;17.20;99.90;;;;;;5009831;28;20190;-81
2021/09/07 07:33:48;;;;;;;17.30;12.17;;;17.20;99.90;;;;;;5027046;28;20545;-81
2021/09/07 07:36:14;;;;;;;18.73;11.73;;;17.30;99.90;;;;;;5027218;28;20290;-81
2021/09/07 07:38:39;;;;;;;21.57;12.80;;;17.40;99.90;;;;;;5062988;28;20181;-81
2021/09/07 07:41:05;;;;;;;20.13;12.77;;;17.50;99.90;;;;;;5081069;28;20216;-83
2021/09/07 07:43:33;;;;;;;20.37;12.10;;;17.50;99.90;;;;;;5024997;28;20274;-81
2021/09/07 07:45:59;;;;;;;20.67;12.80;;;17.60;99.90;;;;;;5024330;28;20200;-81
2021/09/07 07:48:24;;;;;;;18.40;12.23;;;17.60;99.90;;;;;;5033765;28;20177;-82
2021/09/07 07:50:50;;;;;;;19.60;12.13;;;17.60;99.90;;;;;;5043124;28;20174;-82
2021/09/07 07:53:16;;;;;;;20.17;12.07;;;17.70;99.90;;;;;;5042981;28;20178;-81
2021/09/07 07:55:41;;;;;;;20.37;12.27;;;17.80;99.90;;;;;;5028177;28;20216;-82
2021/09/07 07:58:07;;;;;;;21.53;12.50;;;17.80;99.90;;;;;;5062628;28;20180;-82
2021/09/07 08:00:33;;;;;;;17.67;11.70;;;17.80;99.90;;;;;;5035911;28;20581;-82
2021/09/07 08:02:58;;;;;;;16.80;11.77;;;17.80;99.90;;;;;;5006315;28;20264;-83
2021/09/07 08:05:24;;;;;;;22.93;11.90;;;17.80;99.90;;;;;;5013675;28;20350;-82
2021/09/07 08:07:49;;;;;;;20.20;11.80;;;17.80;99.90;;;;;;5024892;28;20185;-79
2021/09/07 08:10:15;;;;;;;17.13;11.33;;;17.90;99.90;;;;;;5019109;28;20182;-83
2021/09/07 08:12:41;;;;;;;16.87;11.63;;;17.90;99.90;;;;;;5077405;28;20255;-81
2021/09/07 08:15:07;;;;;;;20.13;11.17;;;17.90;99.90;;;;;;5044747;28;20205;-81
2021/09/07 08:17:32;;;;;;;17.63;11.73;;;18.00;99.90;;;;;;5032424;28;20676;-81
2021/09/07 08:19:58;;;;;;;20.50;11.77;;;18.10;99.90;;;;;;5039830;28;20227;-81
2021/09/07 08:22:24;;;;;;;18.77;11.73;;;18.10;99.90;;;;;;5043170;28;20208;-81
2021/09/07 08:24:50;;;;;;;16.60;10.90;;;18.10;99.90;;;;;;5044169;28;20684;-81
2021/09/07 08:27:16;;;;;;;21.23;11.90;;;18.20;99.90;;;;;;5042732;28;20174;-81
2021/09/07 08:29:42;;;;;;;16.03;11.47;;;18.30;99.90;;;;;;5028071;28;20217;-77
2021/09/07 08:32:08;;;;;;;16.63;11.03;;;18.50;99.90;;;;;;5016987;28;20187;-78
2021/09/07 08:34:33;;;;;;;17.07;11.20;;;18.60;99.90;;;;;;5033503;28;20242;-78
2021/09/07 08:36:59;;;;;;;17.70;11.40;;;18.70;99.90;;;;;;5026965;28;20173;-78
2021/09/07 08:39:24;;;;;;;20.23;11.67;;;18.80;99.90;;;;;;5069119;28;20213;-78
2021/09/07 08:41:50;;;;;;;16.90;11.53;;;18.80;99.90;;;;;;5055317;28;20197;-78
2021/09/07 08:44:20;;;;;;;20.80;11.30;;;18.90;99.90;;;;;;5039248;28;20707;-77
2021/09/07 08:46:46;;;;;;;17.60;10.57;;;19.00;99.90;;;;;;5035582;28;20649;-79
2021/09/07 08:49:13;;;;;;;18.27;11.53;;;19.10;99.90;;;;;;5035979;28;20621;-79
2021/09/07 08:51:38;;;;;;;16.27;11.20;;;19.20;99.90;;;;;;5037789;28;20194;-80
2021/09/07 08:54:04;;;;;;;18.47;11.10;;;19.40;99.90;;;;;;5019721;28;20179;-78
2021/09/07 08:56:29;;;;;;;15.50;10.87;;;19.50;99.90;;;;;;5055232;28;20276;-77
2021/09/07 08:58:55;;;;;;;15.90;11.10;;;19.50;99.90;;;;;;5025072;28;20186;-77
2021/09/07 09:01:20;;;;;;;16.10;11.20;;;19.60;99.90;;;;;;5002331;28;20225;-78
2021/09/07 09:03:46;;;;;;;13.83;10.33;;;19.60;99.90;;;;;;5020460;28;20239;-78
2021/09/07 09:06:12;;;;;;;14.87;10.43;;;19.70;99.90;;;;;;5004723;28;20206;-77
2021/09/07 09:08:38;;;;;;;17.87;10.97;;;19.80;99.90;;;;;;5025967;28;20548;-78
2021/09/07 09:11:05;;;;;;;15.93;10.30;;;19.90;99.90;;;;;;5019824;28;20259;-78
2021/09/07 09:13:40;;;;;;;15.17;10.73;;;20.00;99.90;;;;;;5035897;28;20174;-78
2021/09/07 09:16:06;;;;;;;13.83;10.17;;;19.90;99.90;;;;;;5018764;28;20669;-78
2021/09/07 09:18:36;;;;;;;14.23;9.53;;;20.00;99.90;;;;;;5032456;28;20229;-79
2021/09/07 09:21:31;;;;;;;17.33;10.13;;;20.00;99.90;;;;;;5016014;28;20198;-78
2021/09/07 09:24:19;;;;;;;15.03;9.67;;;20.10;99.90;;;;;;5015936;28;20179;-78
2021/09/07 09:27:00;;;;;;;13.30;9.67;;;20.40;99.90;;;;;;5036316;28;20194;-78
2021/09/07 09:29:26;;;;;;;12.20;9.23;;;20.80;99.90;;;;;;5020117;28;20207;-78
2021/09/07 09:31:52;;;;;;;15.77;10.10;;;21.20;99.90;;;;;;5020210;28;20185;-78
2021/09/07 09:34:18;;;;;;;13.53;9.30;;;21.40;99.90;;;;;;5020015;28;20194;-78
2021/09/07 09:37:04;;;;;;;13.40;9.27;;;21.60;99.90;;;;;;5019972;28;20717;-78
2021/09/07 09:39:49;;;;;;;12.90;9.00;;;21.70;99.90;;;;;;5037341;28;20159;-78
2021/09/07 09:42:28;;;;;;;11.60;8.90;;;21.70;99.90;;;;;;5020153;28;20198;-78
2021/09/07 09:45:01;;;;;;;12.90;9.53;;;21.70;99.90;;;;;;5021523;28;20209;-78
2021/09/07 09:47:38;;;;;;;12.80;8.37;;;21.70;99.90;;;;;;5020299;28;20183;-78
2021/09/07 09:50:04;;;;;;;10.63;8.77;;;21.80;99.90;;;;;;5020308;28;20185;-79
2021/09/07 09:52:33;;;;;;;11.00;7.80;;;21.90;99.90;;;;;;5037146;28;20175;-78
2021/09/07 09:54:59;;;;;;;14.20;8.67;;;22.10;99.90;;;;;;5020421;28;20215;-78
2021/09/07 09:57:24;;;;;;;11.13;8.10;;;22.20;99.90;;;;;;5036916;28;20250;-79
2021/09/07 09:59:50;;;;;;;10.23;7.87;;;22.30;99.90;;;;;;5039827;28;20182;-79
2021/09/07 10:02:16;;;;;;;12.70;8.83;;;22.40;99.90;;;;;;5013275;28;20198;-78
2021/09/07 10:04:41;;;;;;;11.90;7.60;;;22.50;99.90;;;;;;5020303;28;20248;-79
2021/09/07 10:07:07;;;;;;;12.97;7.80;;;22.60;99.90;;;;;;5004457;28;20185;-79
2021/09/07 10:09:33;;;;;;;11.70;7.07;;;22.60;99.90;;;;;;5019772;28;20901;-79
2021/09/07 10:12:14;;;;;;;10.17;7.20;;;22.60;99.90;;;;;;5005181;28;20240;-78
2021/09/07 10:14:44;;;;;;;9.77;7.53;;;22.60;99.90;;;;;;5021129;28;20244;-78
2021/09/07 10:17:44;;;;;;;10.40;7.23;;;22.60;99.90;;;;;;5028589;28;20186;-77
2021/09/07 10:20:16;;;;;;;11.90;7.83;;;22.70;99.90;;;;;;5046501;28;20574;-80
2021/09/07 10:23:13;;;;;;;11.07;8.03;;;22.80;99.90;;;;;;5019229;28;20237;-77
2021/09/07 10:25:49;;;;;;;10.20;7.60;;;23.00;99.90;;;;;;5041075;28;20195;-81
2021/09/07 10:28:37;;;;;;;10.87;7.50;;;23.10;99.90;;;;;;5039006;28;20381;-81
2021/09/07 10:31:04;;;;;;;11.10;7.63;;;23.10;99.90;;;;;;5040448;28;20178;-79
2021/09/07 10:33:29;;;;;;;10.27;7.17;;;23.00;99.90;;;;;;5033937;28;20198;-81
2021/09/07 10:36:07;;;;;;;13.03;9.00;;;23.00;99.90;;;;;;5042644;28;20674;-81
2021/09/07 10:39:01;;;;;;;10.33;7.50;;;23.10;99.90;;;;;;5053558;28;20214;-80
2021/09/07 10:41:33;;;;;;;11.40;7.57;;;23.20;99.90;;;;;;5054708;28;20202;-81
2021/09/07 10:43:59;;;;;;;10.40;7.00;;;23.20;99.90;;;;;;5045936;28;20170;-81
2021/09/07 10:46:40;;;;;;;11.83;7.63;;;23.30;99.90;;;;;;5021516;28;20167;-82
2021/09/07 10:49:18;;;;;;;9.83;7.40;;;23.30;99.90;;;;;;5038165;28;20237;-82
2021/09/07 10:52:09;;;;;;;10.97;7.33;;;23.40;99.90;;;;;;5039079;28;20209;-80
2021/09/07 10:54:54;;;;;;;12.47;8.47;;;23.40;99.90;;;;;;5059522;28;20196;-83
2021/09/07 10:57:41;;;;;;;10.53;7.43;;;23.30;99.90;;;;;;5033744;28;20685;-82
2021/09/07 11:00:21;;;;;;;9.47;7.30;;;23.30;99.90;;;;;;5046856;28;20192;-83
2021/09/07 11:02:55;;;;;;;8.20;6.70;;;23.30;99.90;;;;;;5057004;28;20221;-83
2021/09/07 11:05:27;;;;;;;10.93;8.10;;;23.50;99.90;;;;;;5032604;28;20674;-82
2021/09/07 11:08:05;;;;;;;12.57;7.37;;;23.50;99.90;;;;;;5053582;28;20185;-81
2021/09/07 11:10:32;;;;;;;10.17;8.13;;;23.60;99.90;;;;;;5074015;28;20179;-83
2021/09/07 11:12:57;;;;;;;11.10;7.90;;;23.70;99.90;;;;;;5076750;28;20633;-82
2021/09/07 11:15:33;;;;;;;9.23;7.13;;;23.80;99.90;;;;;;5076850;28;20247;-83
2021/09/07 11:18:00;;;;;;;10.57;7.93;;;23.90;99.90;;;;;;5045496;28;20178;-81
2021/09/07 11:20:30;;;;;;;12.73;8.63;;;24.10;99.90;;;;;;5003952;28;20179;-81
2021/09/07 11:22:57;;;;;;;11.80;8.83;;;24.00;99.90;;;;;;5005693;28;20194;-81
2021/09/07 11:25:24;;;;;;;13.07;8.03;;;24.00;99.90;;;;;;5005524;28;20195;-82
2021/09/07 11:27:54;;;;;;;19.17;9.40;;;24.00;99.90;;;;;;5004619;28;20183;-82
2021/09/07 11:30:21;;;;;;;11.40;8.70;;;24.00;99.90;;;;;;5004982;28;20638;-81
2021/09/07 11:32:46;;;;;;;11.40;9.00;;;24.00;99.90;;;;;;5038644;28;20171;-82
2021/09/07 11:35:12;;;;;;;11.05;8.20;;;24.00;99.90;;;;;;5003382;28;20631;-80
2021/09/07 11:37:38;;;;;;;13.05;9.55;;;24.10;99.90;;;;;;5038242;28;20594;-81
2021/09/07 11:40:16;;;;;;;12.40;9.70;;;24.10;99.90;;;;;;5024873;28;20182;-82
2021/09/07 11:42:43;;;;;;;14.93;9.30;;;24.00;99.90;;;;;;5020730;28;20206;-80
2021/09/07 11:45:09;;;;;;;10.20;7.85;;;24.00;99.90;;;;;;5023162;28;20204;-80
2021/09/07 11:47:34;;;;;;;11.05;9.00;;;24.00;99.90;;;;;;5018418;28;20254;-79
2021/09/07 11:50:00;;;;;;;12.73;8.97;;;24.10;99.90;;;;;;5024893;28;20179;-80
2021/09/07 11:52:26;;;;;;;14.20;9.67;;;24.10;99.90;;;;;;5011588;28;20181;-80
2021/09/07 11:54:51;;;;;;;14.02;9.25;;;24.10;99.90;;;;;;5017695;28;20245;-80
2021/09/07 11:57:17;;;;;;;12.57;8.33;;;24.10;99.90;;;;;;5009486;28;20179;-80
2021/09/07 11:59:58;;;;;;;11.60;8.57;;;24.20;99.90;;;;;;5033279;28;20579;-79
2021/09/07 12:02:27;;;;;;;13.07;9.57;;;24.30;99.90;;;;;;5017185;28;20273;-81
2021/09/07 12:04:59;;;;;;;14.07;8.10;;;24.30;99.90;;;;;;5001653;28;20237;-81
2021/09/07 12:07:25;;;;;;;9.83;7.67;;;24.40;99.90;;;;;;5035238;28;20182;-82
2021/09/07 12:09:50;;;;;;;12.07;8.55;;;24.40;99.90;;;;;;5031664;28;20638;-82
2021/09/07 12:12:16;;;;;;;11.63;8.40;;;24.50;99.90;;;;;;5008685;28;20558;-83
2021/09/07 12:14:46;;;;;;;13.70;8.73;;;24.50;99.90;;;;;;5017480;28;20598;-81
2021/09/07 12:17:15;;;;;;;11.20;8.15;;;24.40;99.90;;;;;;5025530;28;20668;-83
2021/09/07 12:19:47;;;;;;;9.65;7.88;;;24.30;99.90;;;;;;5031566;28;20179;-82
2021/09/07 12:22:25;;;;;;;11.73;8.80;;;24.40;99.90;;;;;;5008920;28;20341;-84
2021/09/07 12:25:06;;;;;;;9.90;7.90;;;24.50;99.90;;;;;;5046273;28;20216;-83
2021/09/07 12:27:42;;;;;;;13.03;8.60;;;24.60;99.90;;;;;;5040447;28;20175;-84
2021/09/07 12:30:12;;;;;;;11.57;8.60;;;24.70;99.90;;;;;;5025198;28;20173;-83
2021/09/07 12:32:55;;;;;;;11.80;8.80;;;24.70;99.90;;;;;;5032193;28;20171;-82
2021/09/07 12:35:35;;;;;;;9.57;7.57;;;24.70;99.90;;;;;;5026815;28;20205;-82